Time;durP1;ratioP1;P1;durP2;ratioP2;P2;SDS_P1;SDS_P2;PMS_P1;PMS_P2;Temp;Humidity;BMP_temperature;BMP_pressure;BME280_temperature;BME280_humidity;BME280_pressure;Samples;Min_cycle;Max_cycle;Signal;HPM_P1;HPM_P2
2023/04/01 00:01:38;;;;;;;9.57;5.82;;;10.40;99.90;;;;;;4976806;28;20439;-79
2023/04/01 00:04:03;;;;;;;9.88;6.50;;;10.40;99.90;;;;;;4986908;28;20656;-78
2023/04/01 00:06:29;;;;;;;13.38;6.45;;;10.50;99.90;;;;;;4977898;28;20122;-77
2023/04/01 00:08:55;;;;;;;9.43;5.75;;;10.50;99.90;;;;;;4980521;28;20486;-79
2023/04/01 00:11:20;;;;;;;8.82;5.78;;;10.50;99.90;;;;;;4972466;28;20045;-79
2023/04/01 00:13:47;;;;;;;12.55;7.22;;;10.50;99.90;;;;;;4980855;28;20106;-79
2023/04/01 00:16:13;;;;;;;17.92;7.47;;;10.50;99.90;;;;;;4958798;28;20027;-78
2023/04/01 00:18:39;;;;;;;12.13;6.00;;;10.50;99.90;;;;;;4983044;28;20069;-78
2023/04/01 00:21:05;;;;;;;9.73;4.18;;;10.50;99.90;;;;;;4960770;28;20062;-78
2023/04/01 00:23:30;;;;;;;9.63;4.63;;;10.50;99.90;;;;;;4980016;28;20478;-78
2023/04/01 00:25:59;;;;;;;7.78;4.65;;;10.60;99.90;;;;;;4978595;28;20138;-78
2023/04/01 00:28:24;;;;;;;12.25;5.55;;;10.60;99.90;;;;;;4980792;28;20045;-79
2023/04/01 00:30:50;;;;;;;12.80;5.30;;;10.60;99.90;;;;;;4964903;28;20194;-78
2023/04/01 00:33:16;;;;;;;12.63;5.43;;;10.60;99.90;;;;;;4977653;28;20042;-78
2023/04/01 00:35:42;;;;;;;12.27;5.28;;;10.60;99.90;;;;;;4979904;28;20034;-78
2023/04/01 00:38:08;;;;;;;11.23;6.63;;;10.60;99.90;;;;;;4978321;28;20040;-78
2023/04/01 00:40:38;;;;;;;10.77;5.57;;;10.70;99.90;;;;;;4968260;28;20036;-79
2023/04/01 00:43:20;;;;;;;12.10;3.17;;;10.60;99.90;;;;;;4981372;28;20049;-79
2023/04/01 00:45:49;;;;;;;11.73;4.15;;;10.60;99.90;;;;;;4964098;28;20466;-79
2023/04/01 00:48:25;;;;;;;7.55;3.60;;;10.60;99.90;;;;;;4983651;28;20026;-78
2023/04/01 00:51:02;;;;;;;9.80;4.65;;;10.60;99.90;;;;;;4981771;28;20042;-78
2023/04/01 00:53:29;;;;;;;7.95;4.07;;;10.60;99.90;;;;;;4964174;28;20803;-79
2023/04/01 00:56:05;;;;;;;7.75;4.70;;;10.60;99.90;;;;;;4984333;28;20050;-78
2023/04/01 00:58:35;;;;;;;10.93;5.03;;;10.60;99.90;;;;;;4978998;28;20045;-78
2023/04/01 01:01:01;;;;;;;9.05;5.20;;;10.60;99.90;;;;;;4984981;28;20035;-78
2023/04/01 01:03:27;;;;;;;8.95;5.53;;;10.60;99.90;;;;;;4962734;28;20506;-78
2023/04/01 01:06:23;;;;;;;13.88;7.20;;;10.60;99.90;;;;;;4978204;28;20607;-78
2023/04/01 01:09:23;;;;;;;13.45;5.43;;;10.60;99.90;;;;;;4981032;28;20027;-78
2023/04/01 01:12:05;;;;;;;13.68;6.15;;;10.60;99.90;;;;;;4976325;28;20498;-78
2023/04/01 01:14:45;;;;;;;10.93;5.35;;;10.50;99.90;;;;;;4982427;28;20447;-79
2023/04/01 01:17:26;;;;;;;9.77;4.03;;;10.50;99.90;;;;;;4978568;28;20117;-78
2023/04/01 01:20:10;;;;;;;13.00;4.95;;;10.50;99.90;;;;;;4963512;28;20550;-78
2023/04/01 01:22:39;;;;;;;11.25;5.63;;;10.50;99.90;;;;;;4977167;28;20031;-78
2023/04/01 01:25:13;;;;;;;12.68;5.88;;;10.50;99.90;;;;;;4975316;28;20106;-78
2023/04/01 01:27:42;;;;;;;8.75;6.30;;;10.50;99.90;;;;;;4981422;28;20030;-78
2023/04/01 01:30:16;;;;;;;10.82;5.22;;;10.50;99.90;;;;;;4981012;28;20060;-79
2023/04/01 01:33:25;;;;;;;11.32;6.13;;;10.50;99.90;;;;;;4975800;28;20030;-78
2023/04/01 01:35:57;;;;;;;13.07;5.68;;;10.50;99.90;;;;;;4977728;28;20421;-79
2023/04/01 01:38:27;;;;;;;12.15;5.85;;;10.50;99.90;;;;;;4974206;28;20059;-78
2023/04/01 01:40:56;;;;;;;10.45;5.03;;;10.40;99.90;;;;;;4982977;28;20044;-78
2023/04/01 01:43:25;;;;;;;7.15;3.20;;;10.50;99.90;;;;;;4983200;28;20026;-78
2023/04/01 01:45:55;;;;;;;6.38;3.92;;;10.40;99.90;;;;;;4982616;28;20029;-79
2023/04/01 01:48:22;;;;;;;6.40;3.00;;;10.40;99.90;;;;;;4977699;28;20030;-79
2023/04/01 01:50:49;;;;;;;8.27;2.97;;;10.40;99.90;;;;;;4973146;28;20030;-80
2023/04/01 01:53:15;;;;;;;9.32;2.85;;;10.40;99.90;;;;;;4976707;28;20039;-78
2023/04/01 01:55:43;;;;;;;5.68;2.30;;;10.40;99.90;;;;;;4981417;28;20022;-78
2023/04/01 01:58:19;;;;;;;6.43;2.50;;;10.40;99.90;;;;;;4979997;28;20090;-78
2023/04/01 02:00:52;;;;;;;7.07;2.58;;;10.40;99.90;;;;;;4979017;28;20038;-79
2023/04/01 02:03:20;;;;;;;5.93;2.17;;;10.40;99.90;;;;;;4963462;28;20516;-79
2023/04/01 02:05:47;;;;;;;5.88;2.40;;;10.40;99.90;;;;;;4970436;28;20030;-78
2023/04/01 02:08:30;;;;;;;10.15;3.08;;;10.40;99.90;;;;;;4976963;28;20566;-78
2023/04/01 02:11:06;;;;;;;3.65;2.55;;;10.40;99.90;;;;;;4963909;28;20038;-79
2023/04/01 02:13:44;;;;;;;6.70;2.53;;;10.40;99.90;;;;;;4980140;28;20042;-79
2023/04/01 02:16:22;;;;;;;9.48;2.65;;;10.40;99.90;;;;;;4973384;28;20108;-80
2023/04/01 02:18:52;;;;;;;6.05;2.50;;;10.40;99.90;;;;;;4977103;28;20045;-79
2023/04/01 02:21:22;;;;;;;6.70;2.13;;;10.40;99.90;;;;;;4955561;28;20030;-79
2023/04/01 02:23:49;;;;;;;7.53;2.53;;;10.40;99.90;;;;;;4979892;28;20033;-79
2023/04/01 02:26:15;;;;;;;8.25;2.17;;;10.40;99.90;;;;;;4976153;28;20165;-79
2023/04/01 02:28:42;;;;;;;4.80;2.28;;;10.40;99.90;;;;;;4978926;28;20544;-79
2023/04/01 02:31:10;;;;;;;10.68;2.58;;;10.40;99.90;;;;;;4955855;28;20022;-79
2023/04/01 02:33:38;;;;;;;8.23;2.50;;;10.40;99.90;;;;;;4978592;28;20041;-79
2023/04/01 02:36:04;;;;;;;6.97;2.20;;;10.30;99.90;;;;;;4962699;28;20713;-79
2023/04/01 02:38:30;;;;;;;7.47;2.70;;;10.30;99.90;;;;;;4978215;28;20574;-79
2023/04/01 02:41:00;;;;;;;4.57;2.17;;;10.40;99.90;;;;;;4979702;28;20117;-79
2023/04/01 02:43:27;;;;;;;4.03;2.17;;;10.40;99.90;;;;;;4977999;28;20035;-79
2023/04/01 02:45:53;;;;;;;6.53;2.30;;;10.40;99.90;;;;;;4979821;28;20046;-79
2023/04/01 02:48:19;;;;;;;4.40;1.92;;;10.40;99.90;;;;;;4968859;28;20030;-78
2023/04/01 02:50:44;;;;;;;5.35;2.03;;;10.30;99.90;;;;;;4978132;28;20085;-77
2023/04/01 02:53:11;;;;;;;5.30;2.55;;;10.40;99.90;;;;;;4974613;28;20101;-79
2023/04/01 02:55:36;;;;;;;4.55;2.10;;;10.40;99.90;;;;;;4977528;28;20174;-79
2023/04/01 02:58:02;;;;;;;4.63;1.80;;;10.40;99.90;;;;;;4964498;28;20676;-79
2023/04/01 03:00:28;;;;;;;6.85;2.80;;;10.30;99.90;;;;;;4958349;28;20061;-78
2023/04/01 03:02:53;;;;;;;4.28;2.33;;;10.30;99.90;;;;;;4955726;28;20031;-78
2023/04/01 03:05:19;;;;;;;3.05;2.15;;;10.40;99.90;;;;;;4953483;28;20053;-79
2023/04/01 03:07:46;;;;;;;7.70;2.95;;;10.40;99.90;;;;;;4954880;28;20031;-77
2023/04/01 03:10:12;;;;;;;5.00;3.20;;;10.30;99.90;;;;;;4956816;28;20398;-78
2023/04/01 03:12:37;;;;;;;6.93;3.50;;;10.30;99.90;;;;;;4956220;28;20043;-78
2023/04/01 03:15:04;;;;;;;7.68;4.13;;;10.30;99.90;;;;;;4958440;28;20110;-79
2023/04/01 03:17:29;;;;;;;10.80;5.30;;;10.30;99.90;;;;;;4956535;28;20037;-78
2023/04/01 03:19:55;;;;;;;8.70;4.18;;;10.30;99.90;;;;;;4956148;28;20031;-78
2023/04/01 03:22:21;;;;;;;9.07;5.07;;;10.30;99.90;;;;;;4956067;28;20499;-78
2023/04/01 03:24:48;;;;;;;14.30;6.70;;;10.20;99.90;;;;;;4946792;28;20071;-78
2023/04/01 03:27:13;;;;;;;12.70;6.78;;;10.20;99.90;;;;;;4963146;28;20043;-78
2023/04/01 03:29:39;;;;;;;7.07;3.35;;;10.30;99.90;;;;;;4943378;28;20031;-78
2023/04/01 03:32:05;;;;;;;10.35;6.00;;;10.20;99.90;;;;;;4957334;28;20141;-78
2023/04/01 03:34:30;;;;;;;8.95;5.45;;;10.20;99.90;;;;;;4970862;28;20122;-78
2023/04/01 03:36:56;;;;;;;7.00;4.30;;;10.20;99.90;;;;;;4941429;28;20543;-76
2023/04/01 03:39:22;;;;;;;9.23;4.53;;;10.20;99.90;;;;;;4957362;28;20100;-77
2023/04/01 03:41:47;;;;;;;13.07;6.20;;;10.30;99.90;;;;;;4941808;28;20023;-77
2023/04/01 03:44:13;;;;;;;10.07;6.60;;;10.30;99.90;;;;;;4936853;29;20043;-77
2023/04/01 03:46:39;;;;;;;7.63;5.10;;;10.30;99.90;;;;;;4957921;28;20027;-79
2023/04/01 03:49:11;;;;;;;13.38;5.53;;;10.30;99.90;;;;;;4959038;28;20570;-77
2023/04/01 03:51:38;;;;;;;10.95;5.63;;;10.30;99.90;;;;;;4958908;28;20031;-79
2023/04/01 03:54:05;;;;;;;7.00;5.18;;;10.40;99.90;;;;;;4958541;28;20131;-79
2023/04/01 03:56:30;;;;;;;13.15;5.60;;;10.30;99.90;;;;;;4956664;28;20123;-79
2023/04/01 03:58:56;;;;;;;10.02;5.40;;;10.40;99.90;;;;;;4937897;28;20570;-79
2023/04/01 04:01:22;;;;;;;7.38;4.88;;;10.40;99.90;;;;;;4957847;28;20019;-79
2023/04/01 04:03:49;;;;;;;8.02;4.35;;;10.30;99.90;;;;;;4959042;28;20035;-78
2023/04/01 04:06:16;;;;;;;9.57;4.82;;;10.30;99.90;;;;;;4962535;28;20031;-79
2023/04/01 04:08:41;;;;;;;8.93;5.07;;;10.40;99.90;;;;;;4961543;28;20117;-78
2023/04/01 04:11:07;;;;;;;6.15;3.67;;;10.30;99.90;;;;;;4938862;28;20126;-78
2023/04/01 04:13:33;;;;;;;8.00;3.95;;;10.40;99.90;;;;;;4956086;28;20135;-79
2023/04/01 04:15:59;;;;;;;5.15;3.60;;;10.40;99.90;;;;;;4959102;28;20035;-79
2023/04/01 04:18:24;;;;;;;7.43;3.28;;;10.40;99.90;;;;;;4960593;28;21384;-79
2023/04/01 04:20:50;;;;;;;6.25;3.72;;;10.40;99.90;;;;;;4962077;28;20023;-79
2023/04/01 04:23:17;;;;;;;4.93;2.78;;;10.30;99.90;;;;;;4936960;28;20118;-79
2023/04/01 04:25:55;;;;;;;3.65;2.10;;;10.30;99.90;;;;;;4957620;28;20035;-79
2023/04/01 04:28:21;;;;;;;5.85;2.50;;;10.30;99.90;;;;;;4957231;28;20034;-79
2023/04/01 04:30:46;;;;;;;8.43;3.55;;;10.30;99.90;;;;;;4960037;28;20042;-78
2023/04/01 04:33:12;;;;;;;7.90;3.97;;;10.40;99.90;;;;;;4960415;28;20043;-79
2023/04/01 04:35:37;;;;;;;9.55;6.13;;;10.40;99.90;;;;;;4958176;28;20060;-78
2023/04/01 04:38:03;;;;;;;10.73;6.82;;;10.40;99.90;;;;;;4962072;28;20049;-79
2023/04/01 04:40:28;;;;;;;13.48;6.78;;;10.30;99.90;;;;;;4962110;28;20033;-78
2023/04/01 04:42:54;;;;;;;9.32;6.60;;;10.30;99.90;;;;;;4956947;28;20031;-79
2023/04/01 04:45:20;;;;;;;11.90;8.15;;;10.40;99.90;;;;;;4939294;28;20434;-79
2023/04/01 04:47:45;;;;;;;13.15;9.15;;;10.40;99.90;;;;;;4960417;28;20035;-78
2023/04/01 04:50:11;;;;;;;12.73;8.60;;;10.40;99.90;;;;;;4961279;28;20245;-79
2023/04/01 04:52:37;;;;;;;14.93;9.02;;;10.30;99.90;;;;;;4962248;28;20697;-79
2023/04/01 04:55:03;;;;;;;9.95;6.22;;;10.40;99.90;;;;;;4957081;28;20079;-77
2023/04/01 04:57:28;;;;;;;6.95;3.97;;;10.30;99.90;;;;;;4958280;28;20038;-79
2023/04/01 04:59:54;;;;;;;8.30;4.25;;;10.30;99.90;;;;;;4956788;28;20114;-79
2023/04/01 05:02:20;;;;;;;6.38;3.90;;;10.40;99.90;;;;;;4963946;28;20422;-79
2023/04/01 05:04:45;;;;;;;6.85;4.38;;;10.40;99.90;;;;;;4962029;28;20023;-79
2023/04/01 05:07:11;;;;;;;9.90;5.35;;;10.40;99.90;;;;;;4960091;28;20046;-79
2023/04/01 05:09:36;;;;;;;3.28;2.63;;;10.40;99.90;;;;;;4964161;28;20041;-79
2023/04/01 05:12:02;;;;;;;5.90;1.80;;;10.40;99.90;;;;;;4961716;28;20050;-79
2023/04/01 05:14:28;;;;;;;2.60;1.10;;;10.30;99.90;;;;;;4962716;28;20557;-79
2023/04/01 05:16:54;;;;;;;2.13;1.15;;;10.30;99.90;;;;;;4959986;28;20585;-80
2023/04/01 05:19:20;;;;;;;1.50;1.15;;;10.30;99.90;;;;;;4965748;28;20085;-79
2023/04/01 05:21:45;;;;;;;3.42;1.45;;;10.20;99.90;;;;;;4958584;28;20035;-79
2023/04/01 05:24:11;;;;;;;1.75;1.20;;;10.20;99.90;;;;;;4964108;28;20031;-79
2023/04/01 05:26:37;;;;;;;2.15;1.33;;;10.20;99.90;;;;;;4960802;28;20046;-79
2023/04/01 05:29:03;;;;;;;2.55;1.42;;;10.20;99.90;;;;;;4963513;28;20049;-79
2023/04/01 05:31:29;;;;;;;3.13;1.60;;;10.00;99.90;;;;;;4963377;28;20034;-79
2023/04/01 05:33:55;;;;;;;2.33;1.42;;;9.90;99.90;;;;;;4962313;28;20039;-79
2023/04/01 05:36:22;;;;;;;1.77;1.55;;;10.00;99.90;;;;;;4961169;28;21949;-79
2023/04/01 05:38:47;;;;;;;1.50;1.30;;;10.10;99.90;;;;;;4958017;28;20740;-79
2023/04/01 05:41:14;;;;;;;2.00;1.70;;;10.10;99.90;;;;;;4956208;28;20027;-79
2023/04/01 05:43:41;;;;;;;3.33;1.80;;;10.10;99.90;;;;;;4955206;28;20030;-79
2023/04/01 05:46:06;;;;;;;2.35;2.00;;;10.10;99.90;;;;;;4957819;28;20526;-79
2023/04/01 05:48:35;;;;;;;4.00;2.42;;;10.10;99.90;;;;;;4958932;28;20031;-79
2023/04/01 05:51:02;;;;;;;6.15;1.98;;;10.10;99.90;;;;;;4962733;28;20031;-79
2023/04/01 05:53:28;;;;;;;3.63;1.83;;;10.10;99.90;;;;;;4957664;28;20046;-79
2023/04/01 05:55:53;;;;;;;3.50;1.80;;;10.20;99.90;;;;;;4959480;28;20031;-79
2023/04/01 05:58:19;;;;;;;2.75;1.63;;;10.20;99.90;;;;;;4963843;28;20843;-80
2023/04/01 06:00:44;;;;;;;2.00;1.77;;;10.20;99.90;;;;;;4983826;28;20047;-79
2023/04/01 06:03:10;;;;;;;2.97;2.00;;;10.20;99.90;;;;;;4977618;28;20681;-79
2023/04/01 06:05:41;;;;;;;2.25;1.77;;;10.20;99.90;;;;;;4977216;28;20030;-79
2023/04/01 06:08:14;;;;;;;35.17;18.55;;;10.30;99.90;;;;;;4980967;28;20084;-79
2023/04/01 06:10:50;;;;;;;22.20;12.25;;;10.20;99.90;;;;;;4976897;28;20629;-79
2023/04/01 06:13:37;;;;;;;7.90;3.58;;;10.30;99.90;;;;;;4960811;28;20043;-79
2023/04/01 06:16:19;;;;;;;4.38;2.58;;;10.30;99.90;;;;;;4975975;28;20118;-79
2023/04/01 06:19:07;;;;;;;3.83;2.97;;;10.40;99.90;;;;;;4977507;28;20061;-80
2023/04/01 06:21:48;;;;;;;5.85;2.85;;;10.40;99.90;;;;;;4980813;28;20057;-80
2023/04/01 06:24:51;;;;;;;6.63;2.90;;;10.40;99.90;;;;;;4956838;28;20031;-79
2023/04/01 06:27:54;;;;;;;436.27;193.63;;;10.50;99.90;;;;;;4973105;28;20030;-79
2023/04/01 06:30:38;;;;;;;33.92;16.42;;;10.60;99.90;;;;;;4959088;28;20035;-80
2023/04/01 06:33:18;;;;;;;5.80;3.60;;;10.60;99.90;;;;;;4978269;28;20058;-80
2023/04/01 06:36:05;;;;;;;4.00;3.60;;;10.70;99.90;;;;;;4971879;28;20111;-80
2023/04/01 06:38:54;;;;;;;4.32;2.50;;;10.70;99.90;;;;;;4957800;28;20041;-80
2023/04/01 06:41:35;;;;;;;13.43;12.05;;;10.70;99.90;;;;;;4971176;28;20030;-79
2023/04/01 06:44:38;;;;;;;135.73;74.50;;;10.80;99.90;;;;;;4979139;28;20394;-79
2023/04/01 06:47:21;;;;;;;25.13;10.15;;;10.80;99.90;;;;;;4977525;28;20038;-80
2023/04/01 06:50:05;;;;;;;6.15;4.30;;;10.80;99.90;;;;;;4976064;28;20085;-80
2023/04/01 06:52:49;;;;;;;4.63;3.20;;;10.90;99.90;;;;;;4962091;28;20042;-79
2023/04/01 06:55:27;;;;;;;5.32;2.67;;;10.90;99.90;;;;;;4977126;28;20041;-79
2023/04/01 06:57:59;;;;;;;160.57;91.25;;;11.00;99.90;;;;;;4975771;28;20510;-80
2023/04/01 07:00:40;;;;;;;9.57;6.80;;;11.00;99.90;;;;;;4975475;28;20162;-80
2023/04/01 07:03:37;;;;;;;5.85;3.45;;;11.00;99.90;;;;;;4978176;28;20101;-79
2023/04/01 07:06:06;;;;;;;5.35;3.30;;;11.20;99.90;;;;;;4982138;28;20038;-79
2023/04/01 07:08:37;;;;;;;4.05;3.40;;;11.20;99.90;;;;;;4974724;28;20030;-79
2023/04/01 07:11:05;;;;;;;4.32;2.97;;;11.20;99.90;;;;;;4977713;28;20026;-80
2023/04/01 07:13:40;;;;;;;4.20;3.35;;;11.30;99.90;;;;;;4980720;28;20061;-79
2023/04/01 07:16:15;;;;;;;3.78;2.92;;;11.40;99.90;;;;;;4965949;28;20063;-79
2023/04/01 07:18:49;;;;;;;4.55;3.00;;;11.50;99.90;;;;;;4964738;28;20105;-80
2023/04/01 07:21:52;;;;;;;5.00;2.78;;;11.70;99.90;;;;;;4978330;28;20034;-80
2023/04/01 07:24:26;;;;;;;5.72;2.60;;;11.80;99.90;;;;;;4978144;28;20026;-79
2023/04/01 07:26:56;;;;;;;4.95;2.63;;;12.00;99.90;;;;;;4975412;28;20715;-80
2023/04/01 07:29:23;;;;;;;3.90;2.78;;;12.20;99.90;;;;;;4962932;28;20041;-78
2023/04/01 07:32:15;;;;;;;4.00;2.42;;;12.40;99.90;;;;;;4979821;28;20034;-78
2023/04/01 07:34:55;;;;;;;3.95;2.42;;;12.60;99.90;;;;;;4969986;28;20073;-78
2023/04/01 07:37:28;;;;;;;5.55;3.08;;;12.80;99.90;;;;;;4967372;28;20026;-78
2023/04/01 07:40:03;;;;;;;5.35;2.15;;;13.00;99.90;;;;;;4977164;28;20474;-78
2023/04/01 07:42:39;;;;;;;2.95;2.38;;;13.20;99.90;;;;;;4967174;28;20034;-78
2023/04/01 07:45:18;;;;;;;3.92;2.40;;;13.30;99.90;;;;;;4978584;28;20034;-78
2023/04/01 07:47:56;;;;;;;42.05;32.38;;;13.50;99.90;;;;;;4974666;28;20054;-78
2023/04/01 07:50:40;;;;;;;11.20;7.45;;;13.30;99.90;;;;;;4975540;28;20053;-79
2023/04/01 07:53:22;;;;;;;2.90;1.80;;;13.40;99.90;;;;;;4955967;28;20047;-78
2023/04/01 07:56:09;;;;;;;2.05;1.85;;;13.30;99.90;;;;;;4975598;28;20551;-78
2023/04/01 07:58:39;;;;;;;2.50;1.42;;;13.20;99.90;;;;;;4975337;28;20050;-78
2023/04/01 08:01:30;;;;;;;2.20;1.80;;;13.30;99.90;;;;;;4958674;28;20486;-78
2023/04/01 08:04:27;;;;;;;2.45;1.52;;;12.90;99.90;;;;;;4981109;28;20501;-78
2023/04/01 08:07:06;;;;;;;1.98;1.65;;;12.60;99.90;;;;;;4974539;28;20089;-78
2023/04/01 08:10:13;;;;;;;2.63;1.90;;;12.50;99.90;;;;;;4970400;28;20027;-79
2023/04/01 08:12:41;;;;;;;3.30;2.03;;;12.40;99.90;;;;;;4930661;28;20117;-78
2023/04/01 08:15:28;;;;;;;2.95;1.90;;;12.20;99.90;;;;;;4967020;28;20080;-78
2023/04/01 08:18:09;;;;;;;2.30;1.83;;;12.20;99.90;;;;;;4971004;28;20027;-78
2023/04/01 08:20:45;;;;;;;;;;;12.20;99.90;;;;;;4972860;28;20027;-78
2023/04/01 08:23:18;;;;;;;2.08;1.88;;;12.20;99.90;;;;;;4974255;28;20285;-78
2023/04/01 08:26:02;;;;;;;3.00;1.95;;;12.40;99.90;;;;;;4961024;28;20030;-78
2023/04/01 08:29:03;;;;;;;5.18;2.40;;;12.60;99.90;;;;;;4965122;28;20030;-77
2023/04/01 08:31:47;;;;;;;4.40;1.85;;;12.80;99.90;;;;;;4971385;28;20400;-78
2023/04/01 08:34:20;;;;;;;4.13;1.98;;;13.10;99.90;;;;;;4985581;28;20065;-78
2023/04/01 08:37:14;;;;;;;2.45;1.60;;;13.40;99.90;;;;;;4957021;28;20036;-78
2023/04/01 08:39:48;;;;;;;2.03;1.60;;;13.50;99.90;;;;;;4980869;28;20089;-79
2023/04/01 08:43:05;;;;;;;4.13;1.77;;;13.90;99.90;;;;;;4978766;28;20034;-78
2023/04/01 08:45:40;;;;;;;3.30;1.75;;;14.00;99.90;;;;;;4920978;28;20057;-78
2023/04/01 08:48:28;;;;;;;3.80;1.50;;;14.10;99.90;;;;;;4981685;28;20026;-78
2023/04/01 08:51:14;;;;;;;3.10;2.20;;;13.90;99.90;;;;;;4977941;28;20061;-78
2023/04/01 08:54:13;;;;;;;4.00;2.17;;;13.60;99.90;;;;;;4984905;28;20510;-78
2023/04/01 08:57:10;;;;;;;3.35;2.30;;;13.20;99.90;;;;;;4975896;28;20425;-78
2023/04/01 08:59:50;;;;;;;2.38;1.98;;;13.20;99.90;;;;;;4985287;28;20521;-79
2023/04/01 09:02:47;;;;;;;2.13;1.85;;;13.10;99.90;;;;;;4985357;28;20053;-78
2023/04/01 09:05:41;;;;;;;3.42;2.28;;;13.10;99.90;;;;;;4979721;28;20034;-78
2023/04/01 09:08:29;;;;;;;5.30;2.70;;;13.10;99.90;;;;;;4987729;28;20426;-78
2023/04/01 09:11:12;;;;;;;3.67;2.70;;;13.30;99.90;;;;;;4979044;28;20045;-78
2023/04/01 09:14:10;;;;;;;6.47;3.08;;;13.40;99.90;;;;;;4981092;28;20042;-78
2023/04/01 09:16:54;;;;;;;3.58;2.80;;;13.40;99.90;;;;;;4973207;28;20372;-78
2023/04/01 09:19:47;;;;;;;9.00;3.13;;;13.40;99.90;;;;;;4974511;28;20839;-78
2023/04/01 09:22:31;;;;;;;3.40;2.95;;;13.00;99.90;;;;;;4982204;28;20076;-79
2023/04/01 09:25:12;;;;;;;4.28;2.97;;;12.70;99.90;;;;;;4978619;28;20112;-78
2023/04/01 09:28:10;;;;;;;4.13;2.67;;;12.80;99.90;;;;;;4968735;28;20037;-78
2023/04/01 09:30:44;;;;;;;3.88;3.20;;;12.90;99.90;;;;;;4950165;28;20046;-78
2023/04/01 09:33:26;;;;;;;4.10;2.83;;;13.20;99.90;;;;;;4979579;28;20047;-78
2023/04/01 09:36:11;;;;;;;3.70;2.85;;;13.40;99.90;;;;;;4979105;28;20029;-78
2023/04/01 09:39:17;;;;;;;3.75;2.95;;;13.50;99.90;;;;;;4973651;28;20109;-78
2023/04/01 09:42:21;;;;;;;6.55;2.80;;;13.10;99.90;;;;;;4978340;28;20076;-78
2023/04/01 09:45:09;;;;;;;4.20;2.45;;;13.00;99.90;;;;;;4978692;28;20081;-78
2023/04/01 09:48:06;;;;;;;3.83;2.72;;;12.90;99.90;;;;;;4980205;28;20035;-78
2023/04/01 09:51:22;;;;;;;3.85;2.67;;;13.00;99.90;;;;;;4962649;28;20042;-78
2023/04/01 09:54:29;;;;;;;4.95;2.35;;;12.90;99.90;;;;;;4973412;28;20046;-78
2023/04/01 09:57:39;;;;;;;2.67;2.20;;;13.10;99.90;;;;;;4978302;28;20434;-79
2023/04/01 10:00:26;;;;;;;2.85;2.00;;;13.20;99.90;;;;;;4956621;28;20133;-79
2023/04/01 10:03:06;;;;;;;2.80;1.98;;;13.10;99.90;;;;;;4978402;28;20038;-79
2023/04/01 10:05:51;;;;;;;3.20;2.00;;;13.10;99.90;;;;;;4978841;28;20406;-79
2023/04/01 10:08:31;;;;;;;3.85;1.80;;;13.10;99.90;;;;;;4976221;28;20093;-79
2023/04/01 10:11:15;;;;;;;2.60;1.70;;;13.30;99.90;;;;;;4981676;28;20082;-81
2023/04/01 10:14:08;;;;;;;1.80;1.55;;;13.40;99.90;;;;;;4980149;28;20517;-80
2023/04/01 10:17:00;;;;;;;2.25;1.70;;;13.60;99.90;;;;;;4975383;28;20622;-80
2023/04/01 10:19:44;;;;;;;2.58;1.85;;;13.40;99.90;;;;;;4979227;28;20030;-80
2023/04/01 10:22:37;;;;;;;2.88;1.70;;;13.50;99.90;;;;;;4983701;28;20118;-80
2023/04/01 10:25:08;;;;;;;2.78;1.90;;;13.50;99.90;;;;;;4977877;28;20042;-80
2023/04/01 10:27:49;;;;;;;3.33;2.10;;;13.80;99.90;;;;;;4981426;28;20026;-79
2023/04/01 10:30:17;;;;;;;5.80;2.28;;;14.20;99.90;;;;;;4969241;28;20050;-80
2023/04/01 10:33:34;;;;;;;2.35;1.90;;;14.50;99.90;;;;;;4979650;28;20125;-80
2023/04/01 10:36:08;;;;;;;4.20;2.08;;;14.70;99.90;;;;;;4942141;28;20042;-80
2023/04/01 10:39:26;;;;;;;2.38;1.70;;;14.80;99.90;;;;;;4968364;28;20030;-80
2023/04/01 10:42:22;;;;;;;1.98;1.63;;;14.80;99.90;;;;;;4911926;28;20522;-80
2023/04/01 10:45:15;;;;;;;2.50;1.70;;;14.70;99.90;;;;;;4973793;28;20030;-79
2023/04/01 10:48:14;;;;;;;3.30;1.90;;;14.00;99.90;;;;;;4982369;28;20034;-80
2023/04/01 10:50:58;;;;;;;2.60;2.00;;;14.30;99.90;;;;;;4975399;28;20483;-80
2023/04/01 10:53:45;;;;;;;3.92;2.40;;;14.60;99.90;;;;;;4967171;28;20548;-79
2023/04/01 10:56:16;;;;;;;4.97;3.08;;;14.90;99.90;;;;;;4965329;28;20042;-79
2023/04/01 10:59:36;;;;;;;5.47;3.08;;;14.80;99.90;;;;;;4966210;28;20883;-80
2023/04/01 11:02:08;;;;;;;3.40;2.53;;;14.40;99.90;;;;;;4880071;29;20041;-80
2023/04/01 11:04:48;;;;;;;3.00;2.38;;;14.60;99.90;;;;;;4960377;28;20050;-79
2023/04/01 11:07:33;;;;;;;5.07;2.70;;;14.60;99.90;;;;;;4986616;28;20398;-79
2023/04/01 11:10:37;;;;;;;3.38;2.30;;;14.60;99.90;;;;;;4966861;28;20033;-80
2023/04/01 11:13:30;;;;;;;3.03;2.63;;;14.80;99.90;;;;;;4964821;28;20051;-79
2023/04/01 11:16:10;;;;;;;3.75;2.30;;;14.50;99.90;;;;;;4973402;28;20093;-79
2023/04/01 11:18:42;;;;;;;5.30;2.55;;;14.60;99.90;;;;;;4986830;28;20037;-79
2023/04/01 11:21:32;;;;;;;3.38;2.25;;;14.60;99.90;;;;;;4968886;28;20022;-79
2023/04/01 11:24:10;;;;;;;2.45;1.77;;;14.80;99.90;;;;;;4967213;28;20660;-80
2023/04/01 11:27:02;;;;;;;3.00;1.70;;;15.20;99.90;;;;;;4973273;28;20142;-80
2023/04/01 11:29:53;;;;;;;2.78;1.73;;;16.00;99.90;;;;;;4968037;28;20039;-79
2023/04/01 11:32:27;;;;;;;1.45;1.35;;;16.00;96.80;;;;;;4968541;28;20121;-79
2023/04/01 11:35:02;;;;;;;5.18;2.78;;;15.90;99.90;;;;;;4984284;28;20128;-78
2023/04/01 11:37:50;;;;;;;2.63;1.80;;;16.20;99.50;;;;;;4977827;28;20041;-79
2023/04/01 11:40:34;;;;;;;3.70;1.65;;;16.50;99.20;;;;;;4972475;28;20117;-79
2023/04/01 11:43:26;;;;;;;2.88;1.67;;;17.00;96.80;;;;;;4967728;28;20029;-79
2023/04/01 11:46:06;;;;;;;;;;;17.00;92.90;;;;;;4980279;28;20034;-78
2023/04/01 11:48:55;;;;;;;2.15;1.58;;;16.90;93.40;;;;;;4982473;28;19910;-78
2023/04/01 11:51:44;;;;;;;3.65;1.52;;;17.10;95.40;;;;;;4985888;28;20420;-79
2023/04/01 11:54:34;;;;;;;2.85;1.60;;;17.70;92.90;;;;;;4987349;28;20034;-79
2023/04/01 11:57:29;;;;;;;2.58;1.80;;;17.60;88.70;;;;;;4960531;28;20042;-79
2023/04/01 12:00:32;;;;;;;1.90;1.48;;;17.60;86.60;;;;;;4982121;28;20098;-79
2023/04/01 12:03:36;;;;;;;3.08;1.83;;;17.50;90.90;;;;;;4966308;28;20458;-78
2023/04/01 12:06:29;;;;;;;3.70;1.83;;;17.70;89.70;;;;;;4926118;28;20034;-78
2023/04/01 12:09:17;;;;;;;3.65;2.00;;;17.60;90.60;;;;;;4979161;28;20030;-79
2023/04/01 12:12:01;;;;;;;5.13;2.10;;;17.70;89.90;;;;;;4980378;28;20030;-78
2023/04/01 12:14:26;;;;;;;4.43;1.90;;;18.40;90.10;;;;;;4974483;28;20041;-78
2023/04/01 12:17:26;;;;;;;3.67;2.22;;;18.80;74.70;;;;;;4976361;28;20035;-78
2023/04/01 12:19:58;;;;;;;3.15;2.17;;;18.50;81.30;;;;;;4975434;28;20145;-83
2023/04/01 12:23:07;;;;;;;4.50;1.98;;;18.20;72.00;;;;;;4973521;28;20026;-78
2023/04/01 12:25:45;;;;;;;5.53;2.20;;;18.00;85.10;;;;;;4923465;28;20126;-79
2023/04/01 12:28:36;;;;;;;3.00;2.10;;;18.10;80.00;;;;;;4982597;28;20190;-80
2023/04/01 12:31:02;;;;;;;;;;;18.10;84.60;;;;;;4978310;28;20027;-78
2023/04/01 12:33:55;;;;;;;3.38;2.17;;;18.60;73.20;;;;;;4969529;28;19922;-79
2023/04/01 12:36:26;;;;;;;3.83;1.60;;;18.90;67.60;;;;;;4986030;28;20034;-78
2023/04/01 12:39:03;;;;;;;3.50;1.73;;;19.20;65.50;;;;;;4978454;28;20752;-78
2023/04/01 12:41:41;;;;;;;3.53;1.50;;;19.20;68.60;;;;;;4961133;28;20057;-78
2023/04/01 12:44:16;;;;;;;4.40;1.80;;;18.80;67.30;;;;;;4963150;28;20034;-78
2023/04/01 12:47:08;;;;;;;3.63;1.50;;;18.80;70.00;;;;;;4980711;28;20462;-78
2023/04/01 12:50:10;;;;;;;1.88;1.55;;;19.10;64.10;;;;;;4967662;28;20035;-78
2023/04/01 12:52:56;;;;;;;3.25;1.50;;;19.30;63.20;;;;;;4965915;28;20096;-79
2023/04/01 12:55:44;;;;;;;3.78;1.48;;;19.20;61.00;;;;;;4980203;28;20031;-78
2023/04/01 12:58:38;;;;;;;3.72;1.67;;;19.00;64.00;;;;;;4970434;28;20168;-78
2023/04/01 13:01:03;;;;;;;3.03;1.90;;;18.90;68.30;;;;;;4972182;28;20038;-78
2023/04/01 13:03:47;;;;;;;2.47;2.28;;;18.60;76.00;;;;;;4981035;28;20041;-78
2023/04/01 13:06:25;;;;;;;3.63;2.08;;;18.80;78.80;;;;;;4982721;28;20038;-78
2023/04/01 13:09:11;;;;;;;2.90;1.88;;;19.10;81.10;;;;;;4978585;28;20038;-78
2023/04/01 13:12:07;;;;;;;2.47;1.73;;;19.50;67.10;;;;;;4979300;28;20062;-78
2023/04/01 13:14:52;;;;;;;2.03;1.40;;;19.60;58.90;;;;;;4968166;28;20046;-78
2023/04/01 13:17:34;;;;;;;4.05;1.83;;;18.20;60.70;;;;;;4986412;28;20030;-78
2023/04/01 13:20:14;;;;;;;2.63;1.40;;;17.80;67.80;;;;;;4988685;28;20022;-78
2023/04/01 13:23:04;;;;;;;2.42;1.35;;;17.60;73.10;;;;;;4979738;28;20041;-77
2023/04/01 13:25:44;;;;;;;3.92;1.50;;;16.80;87.60;;;;;;4975801;28;20473;-78
2023/04/01 13:28:12;;;;;;;5.47;1.83;;;17.10;85.50;;;;;;4985023;28;20038;-77
2023/04/01 13:31:03;;;;;;;2.47;1.40;;;16.80;83.40;;;;;;4983917;28;20120;-78
2023/04/01 13:33:44;;;;;;;3.58;1.75;;;17.00;75.10;;;;;;4985314;28;20046;-78
2023/04/01 13:36:42;;;;;;;4.00;1.60;;;17.20;82.30;;;;;;4973966;28;20649;-78
2023/04/01 13:39:40;;;;;;;4.47;1.80;;;17.10;90.00;;;;;;4978317;28;20054;-78